Rush, NY (14543)

8:25 PM EST on January 25, 2015 (GMT -0500)
highfiwx | Change Station
CLOSE
Current Station
Personal Weather Station
Location: Rush, NY
Elevation: 630 ft
Nearby Weather Stations

Elev 630 ft 43.00 °N, 77.71 °W | Updated 5 minutes ago

Partly Cloudy
Partly Cloudy
8.1 °F
Feels Like 8 °F
N
0.0
Wind Variable Wind from North
Gusts 0.0 mph

Today
High -- | Low -- °F
--% Chance of Precip.
Yesterday
High -- | Low -- °F
Precip. -- in
7:32 AM 5:13 PM
Waxing Crescent, 37% visible
Pressure 30.08 in
Visibility 10.0 miles
Clouds Few 20000 ft
Scattered Clouds 25000 ft
Windchill 8 °F
Dew Point 4 °F
Humidity 81%
Rainfall 0.00 in
Snow Depth Not available.
UV 0 out of 12
Pollen .10 out of 12
Air Quality Not available.
Flu Activity Not available.
METAR KROC 260054Z 00000KT 10SM FEW200 SCT250 M10/M16 A3003 RMK AO2 SLP184 T11001156

More Conditions Fewer Conditions

Pressure 30.08 in
Visibility 10.0 miles
Clouds Few 20000 ft
Scattered Clouds 25000 ft
Windchill 8 °F
Dew Point 4 °F
Humidity 81%
Rainfall 0.00 in
Snow Depth Not available.
UV 0 out of 12
Pollen .10 out of 12
Air Quality Not available.
Flu Activity Not available.
METAR KROC 260054Z 00000KT 10SM FEW200 SCT250 M10/M16 A3003 RMK AO2 SLP184 T11001156

More Conditions Fewer Conditions

10-Day Weather Forecast

Almanac

Astronomy

Jan. 25, 2015 Rise Set
Actual Time
Civil Twilight
Nautical Twilight
Astronomical Twilight
Moon
Length of Visible Light
Length of Day
Tomorrow will be .
, % of the Moon is Illuminated

Today's Extremes

State Highs State Lows

Community

WunderPhotos

Upload Photos

1,790,032 photos uploaded!

WunderBlogs® & News

Nearby

Air Quality

  Air Quality AQ Index Pollutant
Not available.

Snow Depth

Station Depth Elevation

Earthquake Activity

City Distance Mag. Time & Date
Minimum magnitude displayed is 2.5.

Coastal Water Temperatures

Place Temperature

Nearby Weather Stations